sensor_id;sensor_type;location;lat;lon;timestamp;P1;durP1;ratioP1;P2;durP2;ratioP2
11490;SDS011;5802;52.832;4.758;2024-01-27T00:02:06;2.58;;;1.13;;
11490;SDS011;5802;52.832;4.758;2024-01-27T00:04:34;4.25;;;1.48;;
11490;SDS011;5802;52.832;4.758;2024-01-27T00:07:01;2.58;;;1.30;;
11490;SDS011;5802;52.832;4.758;2024-01-27T00:09:30;4.38;;;1.58;;
11490;SDS011;5802;52.832;4.758;2024-01-27T00:11:56;2.00;;;1.33;;
11490;SDS011;5802;52.832;4.758;2024-01-27T00:14:23;1.95;;;1.00;;
11490;SDS011;5802;52.832;4.758;2024-01-27T00:16:50;2.67;;;1.10;;
11490;SDS011;5802;52.832;4.758;2024-01-27T00:19:17;2.08;;;1.25;;
11490;SDS011;5802;52.832;4.758;2024-01-27T00:21:44;3.28;;;1.42;;
11490;SDS011;5802;52.832;4.758;2024-01-27T00:24:11;3.22;;;1.33;;
11490;SDS011;5802;52.832;4.758;2024-01-27T00:26:41;3.85;;;1.30;;
11490;SDS011;5802;52.832;4.758;2024-01-27T00:29:08;2.20;;;1.10;;
11490;SDS011;5802;52.832;4.758;2024-01-27T00:31:35;2.47;;;1.17;;
11490;SDS011;5802;52.832;4.758;2024-01-27T00:34:02;3.50;;;1.50;;
11490;SDS011;5802;52.832;4.758;2024-01-27T00:36:29;2.25;;;1.30;;
11490;SDS011;5802;52.832;4.758;2024-01-27T00:38:56;1.95;;;1.10;;
11490;SDS011;5802;52.832;4.758;2024-01-27T00:41:22;4.05;;;1.02;;
11490;SDS011;5802;52.832;4.758;2024-01-27T00:43:51;2.78;;;1.20;;
11490;SDS011;5802;52.832;4.758;2024-01-27T00:46:17;3.05;;;1.50;;
11490;SDS011;5802;52.832;4.758;2024-01-27T00:48:44;1.60;;;1.00;;
11490;SDS011;5802;52.832;4.758;2024-01-27T00:51:11;3.53;;;1.25;;
11490;SDS011;5802;52.832;4.758;2024-01-27T00:53:39;3.45;;;1.30;;
11490;SDS011;5802;52.832;4.758;2024-01-27T00:56:06;2.53;;;1.27;;
11490;SDS011;5802;52.832;4.758;2024-01-27T00:58:33;2.83;;;1.30;;
11490;SDS011;5802;52.832;4.758;2024-01-27T01:01:01;4.32;;;1.10;;
11490;SDS011;5802;52.832;4.758;2024-01-27T01:03:28;2.30;;;1.25;;
11490;SDS011;5802;52.832;4.758;2024-01-27T01:05:55;2.70;;;1.20;;
11490;SDS011;5802;52.832;4.758;2024-01-27T01:08:22;2.60;;;1.40;;
11490;SDS011;5802;52.832;4.758;2024-01-27T01:10:48;3.42;;;1.30;;
11490;SDS011;5802;52.832;4.758;2024-01-27T01:13:15;3.45;;;1.45;;
11490;SDS011;5802;52.832;4.758;2024-01-27T01:15:42;2.13;;;1.00;;
11490;SDS011;5802;52.832;4.758;2024-01-27T01:18:10;2.35;;;1.45;;
11490;SDS011;5802;52.832;4.758;2024-01-27T01:20:37;2.55;;;1.15;;
11490;SDS011;5802;52.832;4.758;2024-01-27T01:23:04;2.47;;;1.20;;
11490;SDS011;5802;52.832;4.758;2024-01-27T01:25:31;3.10;;;1.17;;
11490;SDS011;5802;52.832;4.758;2024-01-27T01:27:58;3.53;;;1.17;;
11490;SDS011;5802;52.832;4.758;2024-01-27T01:30:24;1.80;;;0.85;;
11490;SDS011;5802;52.832;4.758;2024-01-27T01:32:51;1.17;;;0.90;;
11490;SDS011;5802;52.832;4.758;2024-01-27T01:35:20;2.72;;;1.00;;
11490;SDS011;5802;52.832;4.758;2024-01-27T01:37:46;3.58;;;1.08;;
11490;SDS011;5802;52.832;4.758;2024-01-27T01:40:14;2.25;;;1.10;;
11490;SDS011;5802;52.832;4.758;2024-01-27T01:42:41;3.17;;;1.27;;
11490;SDS011;5802;52.832;4.758;2024-01-27T01:45:08;2.10;;;0.90;;
11490;SDS011;5802;52.832;4.758;2024-01-27T01:47:37;4.18;;;1.20;;
11490;SDS011;5802;52.832;4.758;2024-01-27T01:50:05;1.77;;;0.90;;
11490;SDS011;5802;52.832;4.758;2024-01-27T01:52:34;3.65;;;1.33;;
11490;SDS011;5802;52.832;4.758;2024-01-27T01:55:02;3.25;;;1.30;;
11490;SDS011;5802;52.832;4.758;2024-01-27T01:57:30;2.33;;;1.00;;
11490;SDS011;5802;52.832;4.758;2024-01-27T01:59:57;2.03;;;1.00;;
11490;SDS011;5802;52.832;4.758;2024-01-27T02:02:24;2.63;;;1.10;;
11490;SDS011;5802;52.832;4.758;2024-01-27T02:04:50;2.10;;;1.10;;
11490;SDS011;5802;52.832;4.758;2024-01-27T02:07:17;2.13;;;0.90;;
11490;SDS011;5802;52.832;4.758;2024-01-27T02:09:45;3.03;;;1.20;;
11490;SDS011;5802;52.832;4.758;2024-01-27T02:12:12;2.35;;;1.17;;
11490;SDS011;5802;52.832;4.758;2024-01-27T02:14:39;3.25;;;1.00;;
11490;SDS011;5802;52.832;4.758;2024-01-27T02:17:06;2.42;;;1.20;;
11490;SDS011;5802;52.832;4.758;2024-01-27T02:19:33;1.98;;;1.00;;
11490;SDS011;5802;52.832;4.758;2024-01-27T02:22:00;2.03;;;0.88;;
11490;SDS011;5802;52.832;4.758;2024-01-27T02:24:29;2.13;;;1.00;;
11490;SDS011;5802;52.832;4.758;2024-01-27T02:26:55;2.58;;;1.05;;
11490;SDS011;5802;52.832;4.758;2024-01-27T02:29:22;2.47;;;1.00;;
11490;SDS011;5802;52.832;4.758;2024-01-27T02:31:51;2.38;;;1.30;;
11490;SDS011;5802;52.832;4.758;2024-01-27T02:34:17;2.40;;;1.10;;
11490;SDS011;5802;52.832;4.758;2024-01-27T02:36:44;2.78;;;1.25;;
11490;SDS011;5802;52.832;4.758;2024-01-27T02:39:11;2.13;;;1.00;;
11490;SDS011;5802;52.832;4.758;2024-01-27T02:41:39;1.75;;;1.10;;
11490;SDS011;5802;52.832;4.758;2024-01-27T02:44:06;1.90;;;0.95;;
11490;SDS011;5802;52.832;4.758;2024-01-27T02:46:33;2.33;;;0.98;;
11490;SDS011;5802;52.832;4.758;2024-01-27T02:49:00;4.72;;;1.20;;
11490;SDS011;5802;52.832;4.758;2024-01-27T02:51:27;2.28;;;1.10;;
11490;SDS011;5802;52.832;4.758;2024-01-27T02:53:54;2.00;;;1.05;;
11490;SDS011;5802;52.832;4.758;2024-01-27T02:56:20;2.92;;;1.10;;
11490;SDS011;5802;52.832;4.758;2024-01-27T02:58:48;1.90;;;1.00;;
11490;SDS011;5802;52.832;4.758;2024-01-27T03:01:15;2.00;;;1.20;;
11490;SDS011;5802;52.832;4.758;2024-01-27T03:03:42;1.83;;;1.10;;
11490;SDS011;5802;52.832;4.758;2024-01-27T03:06:09;1.75;;;0.90;;
11490;SDS011;5802;52.832;4.758;2024-01-27T03:08:36;2.33;;;1.08;;
11490;SDS011;5802;52.832;4.758;2024-01-27T03:11:03;2.42;;;0.95;;
11490;SDS011;5802;52.832;4.758;2024-01-27T03:13:30;2.15;;;0.95;;
11490;SDS011;5802;52.832;4.758;2024-01-27T03:15:58;4.22;;;1.40;;
11490;SDS011;5802;52.832;4.758;2024-01-27T03:18:25;3.65;;;1.17;;
11490;SDS011;5802;52.832;4.758;2024-01-27T03:20:51;3.28;;;1.27;;
11490;SDS011;5802;52.832;4.758;2024-01-27T03:23:18;2.17;;;1.10;;
11490;SDS011;5802;52.832;4.758;2024-01-27T03:25:45;2.58;;;1.10;;
11490;SDS011;5802;52.832;4.758;2024-01-27T03:28:12;5.47;;;1.00;;
11490;SDS011;5802;52.832;4.758;2024-01-27T03:30:39;1.88;;;0.95;;
11490;SDS011;5802;52.832;4.758;2024-01-27T03:33:07;2.17;;;1.00;;
11490;SDS011;5802;52.832;4.758;2024-01-27T03:35:35;2.03;;;1.10;;
11490;SDS011;5802;52.832;4.758;2024-01-27T03:38:03;2.72;;;1.13;;
11490;SDS011;5802;52.832;4.758;2024-01-27T03:40:31;2.95;;;1.23;;
11490;SDS011;5802;52.832;4.758;2024-01-27T03:42:58;2.45;;;0.95;;
11490;SDS011;5802;52.832;4.758;2024-01-27T03:45:25;1.63;;;0.82;;
11490;SDS011;5802;52.832;4.758;2024-01-27T03:47:51;4.43;;;1.33;;
11490;SDS011;5802;52.832;4.758;2024-01-27T03:50:20;3.53;;;1.27;;
11490;SDS011;5802;52.832;4.758;2024-01-27T03:52:46;1.88;;;1.00;;
11490;SDS011;5802;52.832;4.758;2024-01-27T03:55:13;1.95;;;1.05;;
11490;SDS011;5802;52.832;4.758;2024-01-27T03:57:40;1.95;;;0.93;;
11490;SDS011;5802;52.832;4.758;2024-01-27T04:00:07;1.95;;;0.90;;
11490;SDS011;5802;52.832;4.758;2024-01-27T04:02:36;2.88;;;1.08;;
11490;SDS011;5802;52.832;4.758;2024-01-27T04:05:04;2.08;;;1.00;;
11490;SDS011;5802;52.832;4.758;2024-01-27T04:07:32;1.95;;;1.20;;
11490;SDS011;5802;52.832;4.758;2024-01-27T04:10:01;2.53;;;0.90;;
11490;SDS011;5802;52.832;4.758;2024-01-27T04:12:29;4.20;;;1.25;;
11490;SDS011;5802;52.832;4.758;2024-01-27T04:14:56;2.40;;;1.00;;
11490;SDS011;5802;52.832;4.758;2024-01-27T04:17:24;1.20;;;0.65;;
11490;SDS011;5802;52.832;4.758;2024-01-27T04:19:51;1.85;;;1.00;;
11490;SDS011;5802;52.832;4.758;2024-01-27T04:22:18;2.17;;;1.00;;
11490;SDS011;5802;52.832;4.758;2024-01-27T04:24:46;2.33;;;0.95;;
11490;SDS011;5802;52.832;4.758;2024-01-27T04:27:13;2.08;;;0.95;;
11490;SDS011;5802;52.832;4.758;2024-01-27T04:29:40;2.50;;;1.00;;
11490;SDS011;5802;52.832;4.758;2024-01-27T04:32:08;1.70;;;0.82;;
11490;SDS011;5802;52.832;4.758;2024-01-27T04:34:35;1.85;;;1.08;;
11490;SDS011;5802;52.832;4.758;2024-01-27T04:37:02;3.55;;;1.02;;
11490;SDS011;5802;52.832;4.758;2024-01-27T04:39:29;2.08;;;1.00;;
11490;SDS011;5802;52.832;4.758;2024-01-27T04:41:57;4.10;;;0.98;;
11490;SDS011;5802;52.832;4.758;2024-01-27T04:44:24;1.92;;;1.00;;
11490;SDS011;5802;52.832;4.758;2024-01-27T04:46:51;2.55;;;1.25;;
11490;SDS011;5802;52.832;4.758;2024-01-27T04:49:18;1.85;;;0.90;;
11490;SDS011;5802;52.832;4.758;2024-01-27T04:51:45;1.90;;;1.00;;
11490;SDS011;5802;52.832;4.758;2024-01-27T04:54:11;2.05;;;0.98;;
11490;SDS011;5802;52.832;4.758;2024-01-27T04:56:38;2.45;;;1.27;;
11490;SDS011;5802;52.832;4.758;2024-01-27T04:59:06;1.23;;;0.80;;
11490;SDS011;5802;52.832;4.758;2024-01-27T05:01:33;1.67;;;0.93;;
11490;SDS011;5802;52.832;4.758;2024-01-27T05:04:00;1.33;;;1.00;;
11490;SDS011;5802;52.832;4.758;2024-01-27T05:06:27;2.53;;;0.90;;
11490;SDS011;5802;52.832;4.758;2024-01-27T05:08:54;2.03;;;0.82;;
11490;SDS011;5802;52.832;4.758;2024-01-27T05:11:25;1.35;;;0.73;;
11490;SDS011;5802;52.832;4.758;2024-01-27T05:13:52;2.58;;;1.00;;
11490;SDS011;5802;52.832;4.758;2024-01-27T05:16:21;1.98;;;1.10;;
11490;SDS011;5802;52.832;4.758;2024-01-27T05:18:47;1.10;;;0.80;;
11490;SDS011;5802;52.832;4.758;2024-01-27T05:21:14;2.50;;;1.00;;
11490;SDS011;5802;52.832;4.758;2024-01-27T05:23:41;1.90;;;0.90;;
11490;SDS011;5802;52.832;4.758;2024-01-27T05:26:08;1.75;;;0.90;;
11490;SDS011;5802;52.832;4.758;2024-01-27T05:28:36;2.08;;;0.73;;
11490;SDS011;5802;52.832;4.758;2024-01-27T05:31:03;1.92;;;1.15;;
11490;SDS011;5802;52.832;4.758;2024-01-27T05:33:31;1.73;;;0.93;;
11490;SDS011;5802;52.832;4.758;2024-01-27T05:35:58;2.20;;;0.70;;
11490;SDS011;5802;52.832;4.758;2024-01-27T05:38:25;2.70;;;1.13;;
11490;SDS011;5802;52.832;4.758;2024-01-27T05:40:53;2.30;;;1.20;;
11490;SDS011;5802;52.832;4.758;2024-01-27T05:43:20;2.08;;;1.10;;
11490;SDS011;5802;52.832;4.758;2024-01-27T05:45:47;1.52;;;0.93;;
11490;SDS011;5802;52.832;4.758;2024-01-27T05:48:14;1.02;;;0.88;;
11490;SDS011;5802;52.832;4.758;2024-01-27T05:50:43;1.88;;;0.90;;
11490;SDS011;5802;52.832;4.758;2024-01-27T05:53:20;3.22;;;1.10;;
11490;SDS011;5802;52.832;4.758;2024-01-27T05:55:47;2.22;;;0.90;;
11490;SDS011;5802;52.832;4.758;2024-01-27T05:58:14;1.70;;;1.00;;
11490;SDS011;5802;52.832;4.758;2024-01-27T06:00:42;3.88;;;1.05;;
11490;SDS011;5802;52.832;4.758;2024-01-27T06:03:09;1.45;;;0.82;;
11490;SDS011;5802;52.832;4.758;2024-01-27T06:05:36;0.75;;;0.65;;
11490;SDS011;5802;52.832;4.758;2024-01-27T06:08:05;1.83;;;0.80;;
11490;SDS011;5802;52.832;4.758;2024-01-27T06:10:33;1.60;;;0.80;;
11490;SDS011;5802;52.832;4.758;2024-01-27T06:13:01;2.28;;;1.00;;
11490;SDS011;5802;52.832;4.758;2024-01-27T06:15:28;1.75;;;1.00;;
11490;SDS011;5802;52.832;4.758;2024-01-27T06:17:55;2.53;;;0.80;;
11490;SDS011;5802;52.832;4.758;2024-01-27T06:20:22;1.85;;;1.13;;
11490;SDS011;5802;52.832;4.758;2024-01-27T06:22:49;2.53;;;1.10;;
11490;SDS011;5802;52.832;4.758;2024-01-27T06:25:18;2.38;;;1.15;;
11490;SDS011;5802;52.832;4.758;2024-01-27T06:27:45;1.67;;;1.10;;
11490;SDS011;5802;52.832;4.758;2024-01-27T06:30:12;2.55;;;1.00;;
11490;SDS011;5802;52.832;4.758;2024-01-27T06:32:40;1.63;;;0.88;;
11490;SDS011;5802;52.832;4.758;2024-01-27T06:35:07;2.75;;;1.20;;
11490;SDS011;5802;52.832;4.758;2024-01-27T06:37:34;1.40;;;1.00;;
11490;SDS011;5802;52.832;4.758;2024-01-27T06:40:01;2.08;;;0.98;;
11490;SDS011;5802;52.832;4.758;2024-01-27T06:42:30;1.40;;;0.93;;
11490;SDS011;5802;52.832;4.758;2024-01-27T06:44:57;2.65;;;0.90;;
11490;SDS011;5802;52.832;4.758;2024-01-27T06:47:24;1.30;;;1.00;;
11490;SDS011;5802;52.832;4.758;2024-01-27T06:49:51;1.98;;;1.00;;
11490;SDS011;5802;52.832;4.758;2024-01-27T06:52:17;2.05;;;1.02;;
11490;SDS011;5802;52.832;4.758;2024-01-27T06:54:44;1.75;;;1.08;;
11490;SDS011;5802;52.832;4.758;2024-01-27T06:57:18;1.52;;;1.00;;
11490;SDS011;5802;52.832;4.758;2024-01-27T06:59:47;2.75;;;1.27;;
11490;SDS011;5802;52.832;4.758;2024-01-27T07:02:17;2.17;;;1.00;;
11490;SDS011;5802;52.832;4.758;2024-01-27T07:04:45;2.83;;;0.95;;
11490;SDS011;5802;52.832;4.758;2024-01-27T07:07:12;3.35;;;1.05;;
11490;SDS011;5802;52.832;4.758;2024-01-27T07:09:39;1.58;;;0.98;;
11490;SDS011;5802;52.832;4.758;2024-01-27T07:12:06;2.58;;;1.13;;
11490;SDS011;5802;52.832;4.758;2024-01-27T07:14:34;2.03;;;1.00;;
11490;SDS011;5802;52.832;4.758;2024-01-27T07:17:02;2.33;;;1.10;;
11490;SDS011;5802;52.832;4.758;2024-01-27T07:19:30;2.05;;;1.10;;
11490;SDS011;5802;52.832;4.758;2024-01-27T07:21:57;2.17;;;1.08;;
11490;SDS011;5802;52.832;4.758;2024-01-27T07:24:24;2.22;;;1.00;;
11490;SDS011;5802;52.832;4.758;2024-01-27T07:26:51;2.55;;;1.10;;
11490;SDS011;5802;52.832;4.758;2024-01-27T07:29:18;2.20;;;1.10;;
11490;SDS011;5802;52.832;4.758;2024-01-27T07:31:46;2.65;;;1.30;;
11490;SDS011;5802;52.832;4.758;2024-01-27T07:34:14;2.90;;;0.95;;
11490;SDS011;5802;52.832;4.758;2024-01-27T07:36:41;4.10;;;1.30;;
11490;SDS011;5802;52.832;4.758;2024-01-27T07:39:08;3.13;;;1.20;;
11490;SDS011;5802;52.832;4.758;2024-01-27T07:41:35;1.80;;;1.10;;
11490;SDS011;5802;52.832;4.758;2024-01-27T07:44:08;3.53;;;1.30;;
11490;SDS011;5802;52.832;4.758;2024-01-27T07:46:35;1.65;;;1.00;;
11490;SDS011;5802;52.832;4.758;2024-01-27T07:49:02;2.45;;;1.00;;
11490;SDS011;5802;52.832;4.758;2024-01-27T07:51:30;2.80;;;1.20;;
11490;SDS011;5802;52.832;4.758;2024-01-27T07:53:57;2.30;;;1.38;;
11490;SDS011;5802;52.832;4.758;2024-01-27T07:56:24;1.67;;;0.90;;
11490;SDS011;5802;52.832;4.758;2024-01-27T07:58:51;2.15;;;1.10;;
11490;SDS011;5802;52.832;4.758;2024-01-27T08:01:19;3.15;;;1.00;;
11490;SDS011;5802;52.832;4.758;2024-01-27T08:03:45;4.57;;;1.40;;
11490;SDS011;5802;52.832;4.758;2024-01-27T08:06:14;1.52;;;1.10;;
11490;SDS011;5802;52.832;4.758;2024-01-27T08:08:44;2.53;;;1.00;;
11490;SDS011;5802;52.832;4.758;2024-01-27T08:11:12;4.80;;;1.40;;
11490;SDS011;5802;52.832;4.758;2024-01-27T08:13:39;3.75;;;1.48;;
11490;SDS011;5802;52.832;4.758;2024-01-27T08:16:06;7.00;;;1.45;;
11490;SDS011;5802;52.832;4.758;2024-01-27T08:18:34;3.85;;;1.30;;
11490;SDS011;5802;52.832;4.758;2024-01-27T08:21:03;3.08;;;1.33;;
11490;SDS011;5802;52.832;4.758;2024-01-27T08:23:31;3.30;;;1.58;;
11490;SDS011;5802;52.832;4.758;2024-01-27T08:25:59;3.97;;;1.27;;
11490;SDS011;5802;52.832;4.758;2024-01-27T08:28:26;7.38;;;1.58;;
11490;SDS011;5802;52.832;4.758;2024-01-27T08:30:53;3.55;;;1.70;;
11490;SDS011;5802;52.832;4.758;2024-01-27T08:33:20;3.28;;;1.23;;
11490;SDS011;5802;52.832;4.758;2024-01-27T08:35:47;2.45;;;1.40;;
11490;SDS011;5802;52.832;4.758;2024-01-27T08:38:14;3.97;;;1.50;;
11490;SDS011;5802;52.832;4.758;2024-01-27T08:40:41;1.58;;;1.05;;
11490;SDS011;5802;52.832;4.758;2024-01-27T08:43:09;3.05;;;1.33;;
11490;SDS011;5802;52.832;4.758;2024-01-27T08:45:37;2.80;;;1.52;;
11490;SDS011;5802;52.832;4.758;2024-01-27T08:48:04;3.72;;;1.48;;
11490;SDS011;5802;52.832;4.758;2024-01-27T08:50:32;3.08;;;1.40;;
11490;SDS011;5802;52.832;4.758;2024-01-27T08:52:59;2.97;;;1.30;;
11490;SDS011;5802;52.832;4.758;2024-01-27T08:55:26;3.22;;;1.50;;
11490;SDS011;5802;52.832;4.758;2024-01-27T08:57:53;3.05;;;1.23;;
11490;SDS011;5802;52.832;4.758;2024-01-27T09:00:22;2.95;;;1.10;;
11490;SDS011;5802;52.832;4.758;2024-01-27T09:02:51;2.80;;;1.20;;
11490;SDS011;5802;52.832;4.758;2024-01-27T09:05:18;2.83;;;1.40;;
11490;SDS011;5802;52.832;4.758;2024-01-27T09:07:45;2.92;;;1.52;;
11490;SDS011;5802;52.832;4.758;2024-01-27T09:10:12;2.60;;;1.30;;
11490;SDS011;5802;52.832;4.758;2024-01-27T09:12:40;3.60;;;1.25;;
11490;SDS011;5802;52.832;4.758;2024-01-27T09:15:08;2.35;;;1.20;;
11490;SDS011;5802;52.832;4.758;2024-01-27T09:17:36;2.17;;;1.20;;
11490;SDS011;5802;52.832;4.758;2024-01-27T09:20:03;4.40;;;1.25;;
11490;SDS011;5802;52.832;4.758;2024-01-27T09:22:31;3.10;;;1.20;;
11490;SDS011;5802;52.832;4.758;2024-01-27T09:24:58;2.42;;;1.25;;
11490;SDS011;5802;52.832;4.758;2024-01-27T09:27:24;2.08;;;1.15;;
11490;SDS011;5802;52.832;4.758;2024-01-27T09:29:51;1.85;;;1.23;;
11490;SDS011;5802;52.832;4.758;2024-01-27T09:32:18;2.80;;;1.20;;
11490;SDS011;5802;52.832;4.758;2024-01-27T09:34:46;2.95;;;1.42;;
11490;SDS011;5802;52.832;4.758;2024-01-27T09:37:13;3.72;;;1.30;;
11490;SDS011;5802;52.832;4.758;2024-01-27T09:39:40;2.95;;;1.30;;
11490;SDS011;5802;52.832;4.758;2024-01-27T09:42:07;2.92;;;1.67;;
11490;SDS011;5802;52.832;4.758;2024-01-27T09:44:39;4.63;;;1.40;;
11490;SDS011;5802;52.832;4.758;2024-01-27T09:47:08;2.72;;;1.20;;
11490;SDS011;5802;52.832;4.758;2024-01-27T09:49:37;2.47;;;1.30;;
11490;SDS011;5802;52.832;4.758;2024-01-27T09:52:06;3.10;;;1.17;;
11490;SDS011;5802;52.832;4.758;2024-01-27T09:54:33;1.65;;;1.00;;
11490;SDS011;5802;52.832;4.758;2024-01-27T09:57:01;2.78;;;1.20;;
11490;SDS011;5802;52.832;4.758;2024-01-27T09:59:28;2.03;;;1.17;;
11490;SDS011;5802;52.832;4.758;2024-01-27T10:01:55;3.33;;;1.38;;
11490;SDS011;5802;52.832;4.758;2024-01-27T10:04:24;2.17;;;1.00;;
11490;SDS011;5802;52.832;4.758;2024-01-27T10:06:51;3.15;;;1.20;;
11490;SDS011;5802;52.832;4.758;2024-01-27T10:09:19;2.53;;;1.20;;
11490;SDS011;5802;52.832;4.758;2024-01-27T10:11:46;2.10;;;1.20;;
11490;SDS011;5802;52.832;4.758;2024-01-27T10:14:12;4.07;;;1.42;;
11490;SDS011;5802;52.832;4.758;2024-01-27T10:16:41;3.05;;;1.30;;
11490;SDS011;5802;52.832;4.758;2024-01-27T10:19:11;2.85;;;1.40;;
11490;SDS011;5802;52.832;4.758;2024-01-27T10:21:42;5.07;;;1.30;;
11490;SDS011;5802;52.832;4.758;2024-01-27T10:24:09;5.22;;;1.63;;
11490;SDS011;5802;52.832;4.758;2024-01-27T10:26:37;6.30;;;1.67;;
11490;SDS011;5802;52.832;4.758;2024-01-27T10:29:04;13.82;;;2.38;;
11490;SDS011;5802;52.832;4.758;2024-01-27T10:31:32;10.23;;;2.60;;
11490;SDS011;5802;52.832;4.758;2024-01-27T10:34:01;9.50;;;2.65;;
11490;SDS011;5802;52.832;4.758;2024-01-27T10:36:38;12.30;;;2.65;;
11490;SDS011;5802;52.832;4.758;2024-01-27T10:39:13;9.75;;;2.67;;
11490;SDS011;5802;52.832;4.758;2024-01-27T10:41:42;10.88;;;3.05;;
11490;SDS011;5802;52.832;4.758;2024-01-27T10:44:11;13.02;;;2.80;;
11490;SDS011;5802;52.832;4.758;2024-01-27T10:46:40;16.85;;;2.78;;
11490;SDS011;5802;52.832;4.758;2024-01-27T10:49:09;11.23;;;3.00;;
11490;SDS011;5802;52.832;4.758;2024-01-27T10:51:40;12.75;;;2.65;;
11490;SDS011;5802;52.832;4.758;2024-01-27T10:54:10;8.60;;;2.65;;
11490;SDS011;5802;52.832;4.758;2024-01-27T10:56:43;15.63;;;3.05;;
11490;SDS011;5802;52.832;4.758;2024-01-27T10:59:12;8.50;;;3.20;;
11490;SDS011;5802;52.832;4.758;2024-01-27T11:01:41;10.82;;;2.63;;
11490;SDS011;5802;52.832;4.758;2024-01-27T11:04:10;13.18;;;2.80;;
11490;SDS011;5802;52.832;4.758;2024-01-27T11:06:39;13.10;;;2.90;;
11490;SDS011;5802;52.832;4.758;2024-01-27T11:09:08;12.57;;;2.70;;
11490;SDS011;5802;52.832;4.758;2024-01-27T11:11:36;15.07;;;3.78;;
11490;SDS011;5802;52.832;4.758;2024-01-27T11:14:06;30.40;;;4.35;;
11490;SDS011;5802;52.832;4.758;2024-01-27T11:16:34;20.33;;;3.88;;
11490;SDS011;5802;52.832;4.758;2024-01-27T11:19:03;14.05;;;3.30;;
11490;SDS011;5802;52.832;4.758;2024-01-27T11:21:31;6.90;;;2.53;;
11490;SDS011;5802;52.832;4.758;2024-01-27T11:23:58;11.65;;;2.63;;
11490;SDS011;5802;52.832;4.758;2024-01-27T11:26:24;8.13;;;2.95;;
11490;SDS011;5802;52.832;4.758;2024-01-27T11:28:52;15.40;;;2.67;;
11490;SDS011;5802;52.832;4.758;2024-01-27T11:31:20;10.00;;;2.70;;
11490;SDS011;5802;52.832;4.758;2024-01-27T11:33:47;13.45;;;2.80;;
11490;SDS011;5802;52.832;4.758;2024-01-27T11:36:20;8.77;;;2.35;;
11490;SDS011;5802;52.832;4.758;2024-01-27T11:38:48;9.27;;;2.28;;
11490;SDS011;5802;52.832;4.758;2024-01-27T11:41:28;10.73;;;2.47;;
11490;SDS011;5802;52.832;4.758;2024-01-27T11:43:56;6.88;;;2.22;;
11490;SDS011;5802;52.832;4.758;2024-01-27T11:46:25;9.57;;;2.20;;
11490;SDS011;5802;52.832;4.758;2024-01-27T11:48:53;11.63;;;2.20;;
11490;SDS011;5802;52.832;4.758;2024-01-27T11:51:19;9.00;;;2.60;;
11490;SDS011;5802;52.832;4.758;2024-01-27T11:53:48;7.72;;;2.20;;
11490;SDS011;5802;52.832;4.758;2024-01-27T11:56:15;5.68;;;2.40;;
11490;SDS011;5802;52.832;4.758;2024-01-27T11:58:46;6.85;;;1.80;;
11490;SDS011;5802;52.832;4.758;2024-01-27T12:01:13;3.90;;;2.10;;
11490;SDS011;5802;52.832;4.758;2024-01-27T12:03:42;4.32;;;2.03;;
11490;SDS011;5802;52.832;4.758;2024-01-27T12:06:10;7.47;;;2.05;;
11490;SDS011;5802;52.832;4.758;2024-01-27T12:08:37;10.10;;;2.17;;
11490;SDS011;5802;52.832;4.758;2024-01-27T12:11:05;5.47;;;1.90;;
11490;SDS011;5802;52.832;4.758;2024-01-27T12:13:32;6.43;;;2.30;;
11490;SDS011;5802;52.832;4.758;2024-01-27T12:16:00;5.38;;;2.03;;
11490;SDS011;5802;52.832;4.758;2024-01-27T12:18:27;7.30;;;2.08;;
11490;SDS011;5802;52.832;4.758;2024-01-27T12:20:56;4.65;;;1.98;;
11490;SDS011;5802;52.832;4.758;2024-01-27T12:23:23;6.07;;;1.77;;
11490;SDS011;5802;52.832;4.758;2024-01-27T12:25:52;5.40;;;2.10;;
11490;SDS011;5802;52.832;4.758;2024-01-27T12:28:21;7.28;;;1.85;;
11490;SDS011;5802;52.832;4.758;2024-01-27T12:30:48;4.80;;;2.00;;
11490;SDS011;5802;52.832;4.758;2024-01-27T12:33:16;4.72;;;1.88;;
11490;SDS011;5802;52.832;4.758;2024-01-27T12:35:44;3.65;;;1.60;;
11490;SDS011;5802;52.832;4.758;2024-01-27T12:38:13;4.00;;;1.70;;
11490;SDS011;5802;52.832;4.758;2024-01-27T12:40:40;4.72;;;1.88;;
11490;SDS011;5802;52.832;4.758;2024-01-27T12:43:07;6.60;;;2.13;;
11490;SDS011;5802;52.832;4.758;2024-01-27T12:45:34;3.75;;;1.70;;
11490;SDS011;5802;52.832;4.758;2024-01-27T12:48:02;3.75;;;1.50;;
11490;SDS011;5802;52.832;4.758;2024-01-27T12:50:30;4.80;;;1.90;;
11490;SDS011;5802;52.832;4.758;2024-01-27T12:52:57;3.58;;;1.63;;
11490;SDS011;5802;52.832;4.758;2024-01-27T12:55:25;5.93;;;2.03;;
11490;SDS011;5802;52.832;4.758;2024-01-27T12:57:52;4.55;;;2.00;;
11490;SDS011;5802;52.832;4.758;2024-01-27T13:00:19;4.60;;;2.10;;
11490;SDS011;5802;52.832;4.758;2024-01-27T13:02:46;5.68;;;1.60;;
11490;SDS011;5802;52.832;4.758;2024-01-27T13:05:13;5.55;;;1.67;;
11490;SDS011;5802;52.832;4.758;2024-01-27T13:07:40;7.32;;;1.80;;
11490;SDS011;5802;52.832;4.758;2024-01-27T13:10:07;4.35;;;1.60;;
11490;SDS011;5802;52.832;4.758;2024-01-27T13:12:36;4.93;;;2.00;;
11490;SDS011;5802;52.832;4.758;2024-01-27T13:15:03;5.75;;;1.90;;
11490;SDS011;5802;52.832;4.758;2024-01-27T13:17:30;3.63;;;1.73;;
11490;SDS011;5802;52.832;4.758;2024-01-27T13:19:57;4.45;;;1.60;;
11490;SDS011;5802;52.832;4.758;2024-01-27T13:22:24;3.67;;;1.80;;
11490;SDS011;5802;52.832;4.758;2024-01-27T13:24:51;2.95;;;1.38;;
11490;SDS011;5802;52.832;4.758;2024-01-27T13:27:19;4.00;;;1.65;;
11490;SDS011;5802;52.832;4.758;2024-01-27T13:29:47;3.22;;;1.30;;
11490;SDS011;5802;52.832;4.758;2024-01-27T13:32:15;3.53;;;1.30;;
11490;SDS011;5802;52.832;4.758;2024-01-27T13:34:41;4.53;;;1.67;;
11490;SDS011;5802;52.832;4.758;2024-01-27T13:37:08;3.38;;;1.30;;
11490;SDS011;5802;52.832;4.758;2024-01-27T13:39:36;3.35;;;1.67;;
11490;SDS011;5802;52.832;4.758;2024-01-27T13:42:03;3.83;;;1.60;;
11490;SDS011;5802;52.832;4.758;2024-01-27T13:44:31;6.43;;;1.70;;
11490;SDS011;5802;52.832;4.758;2024-01-27T13:47:02;3.70;;;1.60;;
11490;SDS011;5802;52.832;4.758;2024-01-27T13:49:29;2.78;;;1.30;;
11490;SDS011;5802;52.832;4.758;2024-01-27T13:51:57;7.57;;;1.80;;
11490;SDS011;5802;52.832;4.758;2024-01-27T13:54:24;3.30;;;1.20;;
11490;SDS011;5802;52.832;4.758;2024-01-27T13:56:50;2.50;;;1.50;;
11490;SDS011;5802;52.832;4.758;2024-01-27T13:59:19;3.50;;;1.70;;
11490;SDS011;5802;52.832;4.758;2024-01-27T14:01:46;4.25;;;1.63;;
11490;SDS011;5802;52.832;4.758;2024-01-27T14:04:14;2.60;;;1.55;;
11490;SDS011;5802;52.832;4.758;2024-01-27T14:06:41;2.90;;;1.48;;
11490;SDS011;5802;52.832;4.758;2024-01-27T14:09:08;3.53;;;1.40;;
11490;SDS011;5802;52.832;4.758;2024-01-27T14:11:35;4.28;;;1.60;;
11490;SDS011;5802;52.832;4.758;2024-01-27T14:14:02;3.78;;;1.48;;
11490;SDS011;5802;52.832;4.758;2024-01-27T14:16:29;3.65;;;1.33;;
11490;SDS011;5802;52.832;4.758;2024-01-27T14:18:56;3.72;;;1.63;;
11490;SDS011;5802;52.832;4.758;2024-01-27T14:21:25;4.00;;;1.45;;
11490;SDS011;5802;52.832;4.758;2024-01-27T14:23:52;3.35;;;1.50;;
11490;SDS011;5802;52.832;4.758;2024-01-27T14:26:25;3.83;;;1.50;;
11490;SDS011;5802;52.832;4.758;2024-01-27T14:28:53;3.10;;;1.50;;
11490;SDS011;5802;52.832;4.758;2024-01-27T14:31:20;4.00;;;1.40;;
11490;SDS011;5802;52.832;4.758;2024-01-27T14:33:47;3.10;;;1.48;;
11490;SDS011;5802;52.832;4.758;2024-01-27T14:36:14;5.97;;;1.20;;
11490;SDS011;5802;52.832;4.758;2024-01-27T14:38:42;3.17;;;1.40;;
11490;SDS011;5802;52.832;4.758;2024-01-27T14:41:09;8.95;;;1.63;;
11490;SDS011;5802;52.832;4.758;2024-01-27T14:43:37;2.97;;;1.40;;
11490;SDS011;5802;52.832;4.758;2024-01-27T14:46:04;3.88;;;1.40;;
11490;SDS011;5802;52.832;4.758;2024-01-27T14:48:31;5.57;;;1.60;;
11490;SDS011;5802;52.832;4.758;2024-01-27T14:50:58;3.80;;;1.55;;
11490;SDS011;5802;52.832;4.758;2024-01-27T14:53:25;3.45;;;1.30;;
11490;SDS011;5802;52.832;4.758;2024-01-27T14:55:54;4.82;;;1.38;;
11490;SDS011;5802;52.832;4.758;2024-01-27T14:58:21;6.80;;;1.50;;
11490;SDS011;5802;52.832;4.758;2024-01-27T15:00:48;3.78;;;1.25;;
11490;SDS011;5802;52.832;4.758;2024-01-27T15:03:18;5.07;;;1.38;;